createdAt,value
2019-04-28T00:02:01.432Z,82.84
2019-04-28T00:07:06.247Z,82.61
2019-04-28T00:12:11.606Z,82.49
2019-04-28T00:17:16.411Z,82.23
2019-04-28T00:22:24.808Z,82.05
2019-04-28T00:27:31.595Z,82.05
2019-04-28T00:32:39.115Z,81.88
2019-04-28T00:37:46.672Z,81.94
2019-04-28T00:42:51.103Z,82.42
2019-04-28T00:47:55.337Z,82.29
2019-04-28T00:52:59.252Z,81.69
2019-04-28T00:58:07.719Z,81.36
2019-04-28T01:03:23.885Z,82.27
2019-04-28T01:08:41.952Z,81.80
2019-04-28T01:14:07.669Z,81.29
2019-04-28T01:19:31.828Z,81.29
2019-04-28T01:24:40.255Z,81.29
2019-04-28T01:29:52.875Z,80.75
2019-04-28T01:35:02.382Z,80.03
2019-04-28T01:40:11.064Z,80.67
2019-04-28T01:45:42.547Z,81.06
2019-04-28T01:51:09.521Z,79.87
2019-04-28T01:56:17.899Z,79.98
2019-04-28T02:01:30.309Z,79.39
2019-04-28T02:06:39.894Z,80.28
2019-04-28T02:11:52.231Z,80.12
2019-04-28T02:17:05.613Z,80.27
2019-04-28T02:22:34.549Z,80.23
2019-04-28T02:27:42.924Z,80.17
2019-04-28T02:32:58.139Z,80.07
2019-04-28T02:38:26.739Z,80.39
2019-04-28T02:43:57.220Z,79.75
2019-04-28T02:49:10.230Z,79.63
2019-04-28T02:54:17.098Z,79.56
2019-04-28T02:59:50.830Z,80.08
2019-04-28T03:05:01.725Z,79.66
2019-04-28T03:10:06.277Z,79.74
2019-04-28T03:15:52.695Z,79.77
2019-04-28T03:21:04.385Z,79.65
2019-04-28T03:26:35.301Z,79.47
2019-04-28T03:32:28.971Z,79.10
2019-04-28T03:37:23.541Z,79.38
2019-04-28T03:43:15.299Z,79.69
2019-04-28T03:48:21.775Z,80.49
2019-04-28T03:54:00.630Z,81.45
2019-04-28T04:10:23.722Z,82.84
2019-04-28T04:15:54.178Z,83.11
2019-04-28T04:21:11.432Z,83.08
2019-04-28T04:26:33.228Z,83.45
2019-04-28T04:31:42.766Z,83.85
2019-04-28T04:37:00.757Z,83.73
2019-04-28T04:42:30.680Z,83.50
2019-04-28T04:47:40.468Z,83.31
2019-04-28T04:52:46.746Z,83.20
2019-04-28T04:57:54.746Z,83.49
2019-04-28T05:03:10.581Z,83.76
2019-04-28T05:08:36.048Z,83.45
2019-04-28T05:13:39.924Z,83.24
2019-04-28T05:18:51.747Z,82.79
2019-04-28T05:24:30.239Z,82.63
2019-04-28T05:36:13.697Z,81.99
2019-04-28T05:41:26.334Z,81.22
2019-04-28T05:46:30.037Z,80.73
2019-04-28T05:51:42.239Z,80.27
2019-04-28T05:57:05.572Z,79.41
2019-04-28T06:02:12.272Z,79.09
2019-04-28T06:07:22.907Z,78.79
2019-04-28T06:12:25.835Z,77.82
2019-04-28T06:17:30.104Z,77.95
2019-04-28T06:22:38.642Z,77.28
2019-04-28T06:27:42.444Z,77.89
2019-04-28T06:33:10.459Z,77.71
2019-04-28T06:38:22.386Z,77.13
2019-04-28T06:43:24.821Z,77.06
2019-04-28T06:48:41.807Z,75.71
2019-04-28T06:53:45.848Z,76.45
2019-04-28T06:58:59.207Z,75.96
2019-04-28T07:04:05.023Z,75.31
2019-04-28T07:09:14.438Z,74.97
2019-04-28T07:14:21.179Z,73.86
2019-04-28T07:19:23.448Z,73.92
2019-04-28T07:24:26.204Z,73.83
2019-04-28T07:29:34.627Z,73.14
2019-04-28T07:34:40.038Z,72.17
2019-04-28T07:40:33.964Z,72.18
2019-04-28T07:45:36.901Z,72.48
2019-04-28T07:50:39.102Z,71.32
2019-04-28T07:55:52.595Z,71.05
2019-04-28T08:00:59.770Z,69.79
2019-04-28T08:06:26.977Z,70.88
2019-04-28T08:17:38.418Z,70.58
2019-04-28T08:22:48.241Z,70.79
2019-04-28T08:27:53.093Z,70.28
2019-04-28T08:33:10.734Z,69.08
2019-04-28T08:38:19.474Z,69.08
2019-04-28T08:43:31.039Z,67.19
2019-04-28T08:48:44.013Z,66.71
2019-04-28T08:54:50.666Z,64.47
2019-04-28T09:00:02.544Z,64.47
2019-04-28T09:05:07.292Z,65.06
2019-04-28T09:10:10.481Z,65.35
2019-04-28T09:15:17.532Z,64.15
2019-04-28T09:21:02.978Z,64.95
2019-04-28T09:26:44.341Z,64.95
2019-04-28T09:31:50.063Z,63.35
2019-04-28T09:36:53.821Z,61.44
2019-04-28T09:42:46.548Z,61.93
2019-04-28T09:48:01.780Z,62.78
2019-04-28T09:53:13.220Z,63.56
2019-04-28T09:58:20.175Z,59.47
2019-04-28T10:03:25.264Z,59.47
2019-04-28T10:08:28.628Z,61.99
2019-04-28T10:13:37.858Z,59.18
2019-04-28T10:18:46.443Z,56.38
2019-04-28T10:23:52.135Z,55.69
2019-04-28T10:35:47.418Z,56.90
2019-04-28T10:47:33.615Z,59.45
2019-04-28T10:54:17.731Z,59.17
2019-04-28T13:16:38.144Z,54.38
2019-04-28T13:41:29.824Z,53.09
2019-04-28T14:55:24.288Z,45.87
2019-04-28T15:21:39.545Z,40.12
2019-04-28T15:26:43.124Z,39.58
2019-04-28T15:31:45.990Z,38.49
2019-04-28T15:36:49.157Z,36.74
2019-04-28T15:41:51.700Z,38.02
2019-04-28T15:47:08.122Z,36.62
2019-04-28T15:52:12.357Z,39.79
2019-04-28T15:57:23.817Z,43.50
2019-04-28T16:07:30.293Z,45.59
2019-04-28T16:12:36.142Z,44.68
2019-04-28T16:25:16.942Z,41.35
2019-04-28T16:50:10.152Z,47.19
2019-04-28T17:09:18.041Z,48.76
2019-04-28T17:13:57.707Z,49.04
2019-04-28T17:19:01.024Z,50.33
2019-04-28T17:24:04.787Z,50.03
2019-04-28T17:29:20.493Z,50.27
2019-04-28T17:35:37.722Z,50.79
2019-04-28T17:40:40.070Z,50.94
2019-04-28T17:45:43.177Z,50.25
2019-04-28T17:56:43.147Z,51.44
2019-04-28T18:02:24.233Z,51.21
2019-04-28T18:07:34.041Z,50.98
2019-04-28T18:12:36.542Z,51.17
2019-04-28T18:18:03.601Z,50.37
2019-04-28T18:23:06.015Z,50.96
2019-04-28T18:28:08.401Z,52.15
2019-04-28T18:33:30.543Z,52.70
2019-04-28T18:38:54.292Z,52.33
2019-04-28T19:45:12.006Z,60.20
2019-04-28T19:55:59.434Z,63.05
2019-04-28T20:01:13.240Z,63.12
2019-04-28T20:06:16.269Z,63.51
2019-04-28T20:11:19.099Z,63.58
2019-04-28T20:16:21.666Z,63.82
2019-04-28T20:21:24.367Z,63.87
2019-04-28T20:26:26.704Z,64.13
2019-04-28T20:31:29.885Z,64.71
2019-04-28T20:36:52.201Z,64.82
2019-04-28T20:41:56.158Z,66.77
2019-04-28T20:46:58.778Z,67.69
2019-04-28T20:52:01.954Z,68.09
2019-04-28T20:57:04.455Z,68.98
2019-04-28T21:02:10.112Z,69.80
2019-04-28T21:07:12.401Z,70.80
2019-04-28T21:12:15.063Z,70.83
2019-04-28T21:17:21.905Z,68.49
2019-04-28T21:22:24.564Z,67.32
2019-04-28T21:27:27.680Z,67.52
2019-04-28T21:32:38.941Z,67.52
2019-04-28T21:37:41.421Z,67.94
2019-04-28T21:43:01.945Z,68.37
2019-04-28T21:48:05.015Z,69.39
2019-04-28T21:53:09.478Z,69.64
2019-04-28T21:58:13.910Z,69.90
2019-04-28T22:03:21.573Z,70.36
2019-04-28T22:08:24.465Z,70.53
2019-04-28T22:13:27.443Z,72.04
2019-04-28T22:18:30.474Z,72.30
2019-04-28T22:23:44.173Z,72.18
2019-04-28T22:28:47.187Z,70.89
2019-04-28T22:33:49.721Z,70.32
2019-04-28T22:38:52.100Z,70.84
2019-04-28T22:44:13.707Z,72.61
2019-04-28T22:49:16.535Z,74.39
2019-04-28T22:54:31.340Z,75.20
2019-04-28T22:59:38.271Z,74.47
2019-04-28T23:04:55.659Z,74.43
2019-04-28T23:09:58.835Z,76.45
2019-04-28T23:15:01.538Z,77.35
2019-04-28T23:20:08.662Z,77.35
2019-04-28T23:25:11.059Z,77.53
2019-04-28T23:30:33.504Z,77.78
2019-04-28T23:35:35.939Z,77.58
2019-04-28T23:40:43.160Z,78.90
2019-04-28T23:45:45.668Z,77.90
2019-04-28T23:51:22.578Z,79.92
2019-04-28T23:56:24.773Z,79.50
